Time;durP1;ratioP1;P1;durP2;ratioP2;P2;SDS_P1;SDS_P2;PMS_P1;PMS_P2;Temp;Humidity;BMP_temperature;BMP_pressure;BME280_temperature;BME280_humidity;BME280_pressure;Samples;Min_cycle;Max_cycle;Signal;HPM_P1;HPM_P2
2023/06/29 00:01:01;;;;;;;7.57;6.60;;;17.10;92.90;;;;;;5121706;27;20469;-62
2023/06/29 00:03:28;;;;;;;11.33;6.67;;;17.10;93.00;;;;;;5125429;27;20511;-61
2023/06/29 00:05:56;;;;;;;10.27;8.90;;;16.80;93.80;;;;;;5124854;27;20474;-62
2023/06/29 00:08:24;;;;;;;9.07;6.83;;;18.70;94.70;;;;;;5121647;27;20477;-60
2023/06/29 00:10:51;;;;;;;13.10;8.70;;;16.70;93.40;;;;;;5123509;27;20468;-60
2023/06/29 00:13:20;;;;;;;13.77;7.70;;;16.70;93.70;;;;;;5123697;27;20473;-61
2023/06/29 00:15:48;;;;;;;24.23;9.57;;;;;;;;;;5123518;27;21281;-61
2023/06/29 00:18:15;;;;;;;32.60;10.00;;;;;;;;;;5121948;27;20478;-61
2023/06/29 00:20:43;;;;;;;19.50;8.43;;;16.70;93.70;;;;;;5127450;27;20597;-60
2023/06/29 00:23:10;;;;;;;17.47;7.27;;;16.80;93.60;;;;;;5121172;27;20472;-62
2023/06/29 00:25:38;;;;;;;11.03;6.63;;;16.80;93.40;;;;;;5123510;27;20476;-60
2023/06/29 00:28:05;;;;;;;16.70;7.70;;;;;;;;;;5119927;27;20707;-62
2023/06/29 00:30:33;;;;;;;16.70;7.40;;;16.90;93.40;;;;;;5124262;27;20887;-61
2023/06/29 00:33:01;;;;;;;19.77;8.90;;;;;;;;;;5113680;27;20983;-62
2023/06/29 00:35:27;;;;;;;11.67;7.33;;;16.90;93.30;;;;;;5111558;27;20472;-61
2023/06/29 00:37:54;;;;;;;22.97;10.07;;;;;;;;;;5112579;27;20475;-61
2023/06/29 00:40:22;;;;;;;17.27;8.27;;;;;;;;;;5113396;27;20482;-61
2023/06/29 00:42:49;;;;;;;30.77;10.80;;;16.60;93.20;;;;;;5113735;27;21070;-61
2023/06/29 00:45:17;;;;;;;15.03;6.70;;;16.60;93.20;;;;;;5115490;27;20969;-61
2023/06/29 00:47:47;;;;;;;26.47;8.90;;;16.50;93.00;;;;;;5114990;27;20822;-60
2023/06/29 00:50:14;;;;;;;24.20;9.40;;;16.60;93.00;;;;;;5114083;27;20568;-62
2023/06/29 00:52:41;;;;;;;16.27;6.90;;;16.50;92.70;;;;;;5115778;27;20639;-60
2023/06/29 00:55:09;;;;;;;19.33;7.83;;;16.60;92.80;;;;;;5115729;27;20480;-62
2023/06/29 00:57:38;;;;;;;22.63;8.73;;;16.60;92.90;;;;;;5116732;27;20479;-60
2023/06/29 01:00:10;;;;;;;27.50;9.73;;;16.50;93.00;;;;;;5114895;27;20926;-61
2023/06/29 01:02:40;;;;;;;18.60;6.80;;;16.50;92.90;;;;;;5116689;27;20494;-60
2023/06/29 01:05:10;;;;;;;19.73;7.37;;;16.40;93.40;;;;;;5116181;27;20522;-61
2023/06/29 01:07:42;;;;;;;12.87;6.70;;;16.20;93.70;;;;;;5116564;27;20476;-61
2023/06/29 01:10:13;;;;;;;25.37;8.93;;;14.00;92.50;;;;;;5114557;27;20469;-61
2023/06/29 01:12:41;;;;;;;21.57;8.17;;;16.20;93.80;;;;;;5116260;27;20485;-61
2023/06/29 01:15:11;;;;;;;28.50;9.20;;;16.10;93.90;;;;;;5117313;27;20480;-61
2023/06/29 01:17:39;;;;;;;11.37;7.60;;;16.10;94.00;;;;;;5118193;27;20578;-61
2023/06/29 01:20:11;;;;;;;32.30;11.60;;;16.10;93.70;;;;;;5114770;27;20488;-61
2023/06/29 01:22:42;;;;;;;23.00;8.87;;;16.00;93.70;;;;;;5115156;27;20511;-60
2023/06/29 01:25:12;;;;;;;26.77;8.80;;;16.00;93.70;;;;;;5113002;27;20480;-61
2023/06/29 01:27:43;;;;;;;19.30;7.83;;;19.90;95.50;;;;;;5116682;27;20575;-61
2023/06/29 01:30:11;;;;;;;35.20;11.07;;;16.10;93.80;;;;;;5113119;27;20472;-60
2023/06/29 01:32:38;;;;;;;14.87;6.97;;;16.10;93.90;;;;;;5101188;27;20473;-61
2023/06/29 01:35:08;;;;;;;26.00;8.23;;;13.10;92.50;;;;;;5110952;27;20479;-61
2023/06/29 01:37:41;;;;;;;16.27;7.70;;;16.00;93.60;;;;;;5115740;27;20472;-62
2023/06/29 01:40:12;;;;;;;33.00;10.90;;;16.00;93.60;;;;;;5113069;27;20469;-61
2023/06/29 01:42:41;;;;;;;22.87;9.13;;;15.90;94.00;;;;;;5115146;27;20546;-62
2023/06/29 01:45:09;;;;;;;27.43;7.80;;;15.90;94.00;;;;;;5098299;27;20844;-61
2023/06/29 01:47:36;;;;;;;13.73;7.10;;;15.80;93.90;;;;;;5112473;27;20471;-61
2023/06/29 01:50:04;;;;;;;43.10;12.43;;;15.80;93.80;;;;;;5115432;27;20999;-61
2023/06/29 01:52:32;;;;;;;21.47;8.40;;;;;;;;;;5117278;27;20710;-60
2023/06/29 01:54:59;;;;;;;58.67;15.63;;;;;;;;;;5115008;27;20476;-61
2023/06/29 01:57:27;;;;;;;32.33;9.70;;;15.60;93.90;;;;;;5118460;27;20487;-60
2023/06/29 01:59:54;;;;;;;71.93;18.10;;;;;;;;;;5116442;27;20477;-61
2023/06/29 02:02:21;;;;;;;20.93;7.70;;;15.60;93.80;;;;;;5115236;27;20489;-61
2023/06/29 02:04:48;;;;;;;44.43;12.67;;;15.70;93.70;;;;;;5113848;27;20478;-61
2023/06/29 02:07:15;;;;;;;33.10;11.27;;;15.70;93.90;;;;;;5114962;27;20479;-61
2023/06/29 02:09:43;;;;;;;30.63;10.03;;;;;;;;;;5114545;27;20481;-60
2023/06/29 02:12:10;;;;;;;24.37;9.13;;;15.70;93.90;;;;;;5112380;27;20894;-61
2023/06/29 02:14:38;;;;;;;24.30;8.63;;;15.80;94.00;;;;;;5114861;27;20480;-62
2023/06/29 02:17:05;;;;;;;25.93;8.70;;;15.80;93.70;;;;;;5115051;27;20487;-61
2023/06/29 02:19:32;;;;;;;24.60;8.47;;;;;;;;;;5117780;27;20883;-61
2023/06/29 02:21:59;;;;;;;53.07;14.73;;;;;;;;;;5095970;27;20476;-61
2023/06/29 02:24:26;;;;;;;31.90;9.77;;;15.40;94.40;;;;;;5117935;27;20968;-60
2023/06/29 02:26:53;;;;;;;62.33;15.30;;;15.40;94.40;;;;;;5115697;27;20476;-60
2023/06/29 02:29:20;;;;;;;30.20;10.00;;;15.30;94.50;;;;;;5118637;27;20545;-61
2023/06/29 02:31:49;;;;;;;42.73;11.87;;;15.30;94.60;;;;;;5116127;27;20484;-62
2023/06/29 02:34:16;;;;;;;34.87;10.77;;;15.30;94.80;;;;;;5115742;27;20833;-61
2023/06/29 02:36:43;;;;;;;23.33;9.90;;;;;;;;;;5116849;27;20693;-61
2023/06/29 02:39:10;;;;;;;19.30;7.70;;;;;;;;;;5116937;27;20480;-60
2023/06/29 02:41:38;;;;;;;14.13;6.43;;;;;;;;;;5114299;27;20617;-61
2023/06/29 02:44:05;;;;;;;39.27;11.93;;;;;;;;;;5115323;27;20467;-60
2023/06/29 02:46:32;;;;;;;26.60;9.13;;;15.10;94.80;;;;;;5116568;28;20472;-60
2023/06/29 02:49:00;;;;;;;40.80;12.30;;;15.10;95.20;;;;;;5087201;28;20880;-60
2023/06/29 02:51:27;;;;;;;29.03;10.23;;;15.00;95.40;;;;;;5090669;27;20483;-60
2023/06/29 02:53:54;;;;;;;59.63;16.00;;;;;;;;;;5112750;27;20916;-60
2023/06/29 02:56:21;;;;;;;44.40;9.10;;;;;;;;;;5116751;27;20594;-60
2023/06/29 02:58:48;;;;;;;42.87;12.93;;;;;;;;;;5115572;27;20479;-60
2023/06/29 03:01:15;;;;;;;25.87;9.10;;;;;;;;;;5115888;27;20473;-61
2023/06/29 03:03:42;;;;;;;32.23;10.03;;;;;;;;;;5115419;27;20771;-60
2023/06/29 03:06:11;;;;;;;27.30;9.87;;;15.10;95.20;;;;;;5085663;28;20475;-60
2023/06/29 03:08:38;;;;;;;18.07;8.97;;;;;;;;;;5113622;27;20483;-61
2023/06/29 03:11:05;;;;;;;29.97;10.30;;;15.20;94.90;;;;;;5114635;27;20464;-60
2023/06/29 03:13:32;;;;;;;21.03;8.60;;;15.10;95.20;;;;;;5109342;27;20479;-61
2023/06/29 03:16:00;;;;;;;45.23;12.83;;;15.20;95.10;;;;;;5118651;27;20553;-60
2023/06/29 03:18:27;;;;;;;30.47;7.90;;;15.20;94.70;;;;;;5120606;27;20706;-62
2023/06/29 03:20:54;;;;;;;50.30;14.40;;;15.20;95.10;;;;;;5120521;27;20482;-60
2023/06/29 03:23:23;;;;;;;26.80;9.33;;;15.20;94.90;;;;;;5120684;27;20468;-60
2023/06/29 03:25:50;;;;;;;40.60;11.70;;;;;;;;;;5092794;27;21036;-60
2023/06/29 03:28:17;;;;;;;32.67;10.80;;;;;;;;;;5116475;27;20988;-60
2023/06/29 03:30:44;;;;;;;29.73;9.57;;;;;;;;;;5116244;27;20483;-60
2023/06/29 03:33:11;;;;;;;23.53;9.33;;;15.00;95.30;;;;;;5118304;27;20495;-61
2023/06/29 03:35:38;;;;;;;17.67;7.30;;;;;;;;;;5116746;27;20476;-60
2023/06/29 03:38:07;;;;;;;25.00;9.20;;;;;;;;;;5116845;27;20472;-60
2023/06/29 03:40:35;;;;;;;23.60;9.23;;;15.00;95.10;;;;;;5117447;27;20468;-60
2023/06/29 03:43:02;;;;;;;31.93;10.67;;;14.90;94.90;;;;;;5088320;27;20483;-60
2023/06/29 03:45:30;;;;;;;44.87;13.17;;;;;;;;;;5113512;27;20483;-60
2023/06/29 03:47:57;;;;;;;38.97;12.20;;;;;;;;;;5116184;27;20923;-61
2023/06/29 03:50:24;;;;;;;34.77;11.63;;;;;;;;;;5118210;27;20506;-61
2023/06/29 03:52:51;;;;;;;26.80;9.07;;;;;;;;;;5120237;27;20942;-60
2023/06/29 03:55:19;;;;;;;22.17;8.07;;;;;;;;;;5118477;27;20487;-61
2023/06/29 03:57:47;;;;;;;21.87;8.13;;;15.00;95.60;;;;;;5108843;27;20864;-61
2023/06/29 04:00:15;;;;;;;28.60;9.80;;;15.00;95.40;;;;;;5102344;27;20688;-61
2023/06/29 04:02:43;;;;;;;28.20;9.70;;;15.00;95.70;;;;;;5118620;27;20800;-61
2023/06/29 04:05:10;;;;;;;27.80;9.60;;;15.00;95.60;;;;;;5095944;27;20481;-60
2023/06/29 04:07:37;;;;;;;16.13;7.70;;;;;;;;;;5115761;27;20477;-60
2023/06/29 04:10:04;;;;;;;38.63;12.40;;;;;;;;;;5119467;27;21093;-61
2023/06/29 04:12:31;;;;;;;24.83;9.33;;;15.10;95.90;;;;;;5120924;27;20498;-60
2023/06/29 04:15:00;;;;;;;51.43;14.50;;;15.10;96.10;;;;;;5120153;27;20440;-60
2023/06/29 04:17:26;;;;;;;33.50;11.03;;;15.00;96.40;;;;;;5119101;27;20468;-60
2023/06/29 04:19:53;;;;;;;64.83;17.10;;;;;;;;;;5116668;27;20883;-60
2023/06/29 04:22:21;;;;;;;33.93;11.20;;;;;;;;;;5117017;27;20499;-60
2023/06/29 04:24:48;;;;;;;42.67;13.17;;;;;;;;;;5113741;27;20477;-61
2023/06/29 04:27:15;;;;;;;37.27;11.63;;;;;;;;;;5116354;27;20469;-61
2023/06/29 04:29:42;;;;;;;22.37;9.47;;;15.30;96.80;;;;;;5119750;27;20480;-60
2023/06/29 04:32:10;;;;;;;32.33;10.10;;;15.40;96.70;;;;;;5120102;27;20472;-60
2023/06/29 04:34:38;;;;;;;22.57;9.60;;;;;;;;;;5107842;27;21019;-60
2023/06/29 04:37:06;;;;;;;32.80;10.73;;;15.70;97.20;;;;;;5095833;27;20484;-61
2023/06/29 04:39:33;;;;;;;27.73;10.93;;;15.80;97.30;;;;;;5101985;27;20480;-61
2023/06/29 04:42:02;;;;;;;43.87;13.10;;;15.90;97.40;;;;;;5082840;27;20477;-60
2023/06/29 04:44:31;;;;;;;25.20;10.47;;;;;;;;;;5110343;27;20481;-60
2023/06/29 04:47:00;;;;;;;43.20;13.70;;;16.20;97.70;;;;;;5096280;27;20477;-61
2023/06/29 04:49:31;;;;;;;36.30;10.40;;;16.40;98.00;;;;;;5096564;28;20485;-60
2023/06/29 04:51:59;;;;;;;35.83;12.53;;;16.60;98.10;;;;;;5095406;28;20469;-60
2023/06/29 04:54:27;;;;;;;35.67;12.77;;;16.70;98.20;;;;;;5099066;28;20498;-60
2023/06/29 04:56:54;;;;;;;45.70;15.43;;;16.90;98.50;;;;;;5096715;28;20526;-60
2023/06/29 04:59:24;;;;;;;25.67;10.20;;;17.00;98.40;;;;;;5098461;27;20491;-60
2023/06/29 05:01:51;;;;;;;31.07;12.17;;;17.20;98.40;;;;;;5096804;28;20481;-60
2023/06/29 05:04:18;;;;;;;31.07;12.40;;;18.40;99.10;;;;;;5095630;27;20480;-60
2023/06/29 05:06:46;;;;;;;28.90;11.47;;;17.40;98.60;;;;;;5095150;27;20524;-60
2023/06/29 05:09:15;;;;;;;33.63;12.00;;;;;;;;;;5093765;27;20499;-59
2023/06/29 05:11:43;;;;;;;23.20;10.80;;;17.70;98.50;;;;;;5095638;28;20761;-60
2023/06/29 05:14:10;;;;;;;37.33;13.20;;;17.70;98.30;;;;;;5099602;27;20666;-60
2023/06/29 05:16:37;;;;;;;19.43;9.67;;;17.80;98.40;;;;;;5095591;28;21522;-60
2023/06/29 05:19:04;;;;;;;41.50;14.53;;;17.90;98.30;;;;;;5097670;27;20478;-60
2023/06/29 05:21:31;;;;;;;25.33;11.13;;;17.90;97.90;;;;;;5088125;28;20473;-60
2023/06/29 05:23:59;;;;;;;52.73;17.63;;;18.00;97.60;;;;;;5098028;28;20485;-60
2023/06/29 05:26:26;;;;;;;23.30;10.20;;;18.10;97.60;;;;;;5099283;28;20486;-60
2023/06/29 05:28:52;;;;;;;47.73;16.13;;;18.10;97.50;;;;;;5097770;28;20485;-60
2023/06/29 05:31:19;;;;;;;38.80;14.67;;;18.20;97.50;;;;;;5097498;28;20480;-60
2023/06/29 05:33:46;;;;;;;26.63;11.63;;;18.30;97.30;;;;;;5096073;28;20473;-60
2023/06/29 05:36:13;;;;;;;31.13;12.50;;;18.40;97.60;;;;;;5085383;28;20474;-61
2023/06/29 05:38:40;;;;;;;21.27;10.67;;;18.40;97.50;;;;;;5094025;27;20827;-60
2023/06/29 05:41:08;;;;;;;29.57;12.90;;;18.50;97.30;;;;;;5083187;27;20492;-60
2023/06/29 05:43:35;;;;;;;16.83;9.87;;;18.60;97.50;;;;;;5093452;28;20466;-60
2023/06/29 05:46:02;;;;;;;37.17;13.40;;;18.60;97.20;;;;;;5095771;28;20733;-60
2023/06/29 05:48:29;;;;;;;29.60;12.53;;;18.80;97.20;;;;;;5097026;28;20538;-60
2023/06/29 05:50:56;;;;;;;48.90;17.53;;;18.90;97.10;;;;;;5095383;28;20473;-60
2023/06/29 05:53:23;;;;;;;30.10;13.07;;;19.00;96.90;;;;;;5095603;28;20481;-60
2023/06/29 05:55:49;;;;;;;39.57;16.07;;;19.10;97.10;;;;;;5086508;28;20519;-60
2023/06/29 05:58:18;;;;;;;27.67;13.40;;;19.20;96.80;;;;;;5093335;28;20479;-59
2023/06/29 06:00:44;;;;;;;23.50;11.37;;;19.20;96.90;;;;;;5094408;28;20477;-60
2023/06/29 06:03:12;;;;;;;26.57;10.97;;;19.30;96.30;;;;;;5083359;27;20477;-60
2023/06/29 06:05:38;;;;;;;17.17;9.53;;;19.50;96.20;;;;;;5100680;27;20469;-61
2023/06/29 06:08:05;;;;;;;28.93;12.10;;;19.50;96.00;;;;;;5102291;27;20585;-61
2023/06/29 06:10:32;;;;;;;22.50;10.13;;;19.70;95.70;;;;;;5092520;28;20488;-60
2023/06/29 06:12:59;;;;;;;27.73;12.23;;;19.70;95.60;;;;;;5094948;27;20489;-60
2023/06/29 06:15:27;;;;;;;23.80;11.30;;;19.80;95.60;;;;;;5096283;27;20906;-61
2023/06/29 06:17:54;;;;;;;50.43;18.70;;;19.90;95.80;;;;;;5100912;27;20860;-60
2023/06/29 06:20:21;;;;;;;25.60;11.43;;;20.00;95.90;;;;;;5093630;27;20999;-60
2023/06/29 06:22:48;;;;;;;29.87;13.40;;;20.10;95.90;;;;;;5103963;27;20481;-60
2023/06/29 06:25:17;;;;;;;25.97;11.50;;;20.20;95.70;;;;;;5089151;28;20986;-60
2023/06/29 06:27:44;;;;;;;40.97;14.10;;;20.30;95.50;;;;;;5097847;28;20600;-61
2023/06/29 06:30:11;;;;;;;31.37;12.13;;;20.40;95.00;;;;;;5104219;27;20507;-61
2023/06/29 06:32:40;;;;;;;19.50;9.90;;;20.50;94.70;;;;;;5094314;28;20479;-61
2023/06/29 06:35:08;;;;;;;26.70;12.10;;;20.50;94.90;;;;;;5089373;27;20474;-61
2023/06/29 06:37:35;;;;;;;25.10;10.60;;;20.70;95.10;;;;;;5090572;27;20474;-61
2023/06/29 06:40:02;;;;;;;34.40;13.83;;;20.80;94.90;;;;;;5087374;27;20485;-61
2023/06/29 06:42:29;;;;;;;25.63;12.40;;;20.90;95.00;;;;;;5112749;28;20487;-61
2023/06/29 06:44:56;;;;;;;36.57;16.33;;;21.00;95.00;;;;;;5092636;27;20484;-61
2023/06/29 06:47:23;;;;;;;19.60;10.37;;;21.10;94.40;;;;;;5109737;27;20854;-61
2023/06/29 06:49:51;;;;;;;37.53;15.93;;;21.20;94.20;;;;;;5114733;27;20476;-61
2023/06/29 06:52:18;;;;;;;24.10;11.70;;;21.40;94.30;;;;;;5118506;27;20760;-61
2023/06/29 06:54:45;;;;;;;33.37;11.10;;;21.50;94.30;;;;;;5116701;27;20472;-60
2023/06/29 06:57:12;;;;;;;21.97;11.20;;;21.60;93.80;;;;;;5118621;27;20477;-61
2023/06/29 06:59:38;;;;;;;13.37;8.53;;;21.80;94.30;;;;;;5118075;27;21023;-61
2023/06/29 07:02:07;;;;;;;14.97;9.17;;;22.00;93.90;;;;;;5116750;27;20483;-61
2023/06/29 07:04:33;;;;;;;14.73;9.67;;;22.20;93.70;;;;;;5118973;27;20594;-61
2023/06/29 07:07:02;;;;;;;30.97;15.43;;;21.80;93.50;;;;;;5113819;27;20752;-61
2023/06/29 07:09:30;;;;;;;20.03;9.37;;;22.40;93.10;;;;;;5120367;27;20475;-61
2023/06/29 07:11:57;;;;;;;33.20;15.53;;;22.40;93.20;;;;;;5118846;27;20476;-60
2023/06/29 07:14:24;;;;;;;24.70;11.97;;;22.50;93.00;;;;;;5118003;27;20568;-61
2023/06/29 07:16:51;;;;;;;30.33;12.37;;;22.50;92.90;;;;;;5117816;27;20483;-60
2023/06/29 07:19:18;;;;;;;20.90;9.87;;;22.50;93.20;;;;;;5120547;27;20493;-61
2023/06/29 07:21:45;;;;;;;29.43;10.77;;;23.00;93.00;;;;;;5116876;27;20472;-60
2023/06/29 07:24:13;;;;;;;28.00;11.70;;;22.60;92.80;;;;;;5118083;27;20476;-61
2023/06/29 07:26:41;;;;;;;17.30;9.90;;;22.70;92.80;;;;;;5118982;27;21153;-60
2023/06/29 07:29:08;;;;;;;18.90;10.07;;;22.70;92.70;;;;;;5119049;27;20476;-61
2023/06/29 07:31:35;;;;;;;16.53;7.73;;;22.80;93.00;;;;;;5118920;27;20483;-61
2023/06/29 07:34:02;;;;;;;27.13;13.70;;;22.90;92.80;;;;;;5116391;27;20468;-60
2023/06/29 07:36:29;;;;;;;19.97;9.33;;;23.00;93.00;;;;;;5117678;27;20862;-61
2023/06/29 07:38:56;;;;;;;25.27;11.67;;;23.00;93.00;;;;;;5115905;27;20793;-61
2023/06/29 07:41:24;;;;;;;20.67;10.13;;;23.10;93.00;;;;;;5117023;27;20528;-61
2023/06/29 07:43:53;;;;;;;32.50;15.37;;;23.20;92.70;;;;;;5116682;27;20479;-61
2023/06/29 07:46:20;;;;;;;20.77;10.00;;;25.10;93.60;;;;;;5116874;27;20498;-61
2023/06/29 07:48:47;;;;;;;20.70;9.80;;;23.40;92.60;;;;;;5087700;27;20489;-61
2023/06/29 07:51:14;;;;;;;22.47;10.73;;;23.50;92.20;;;;;;5116342;27;20968;-60
2023/06/29 07:53:41;;;;;;;18.83;8.77;;;23.60;92.30;;;;;;5117318;27;20840;-60
2023/06/29 07:56:08;;;;;;;17.23;9.63;;;23.70;92.80;;;;;;5115981;27;20472;-60
2023/06/29 07:58:36;;;;;;;14.70;8.53;;;23.70;92.50;;;;;;5117512;27;20485;-60
2023/06/29 08:01:03;;;;;;;21.40;10.73;;;23.80;91.80;;;;;;5116309;27;20904;-60
2023/06/29 08:03:30;;;;;;;19.87;11.33;;;23.90;91.80;;;;;;5112629;27;20480;-60
2023/06/29 08:05:57;;;;;;;23.03;12.30;;;23.90;91.90;;;;;;5112511;27;20891;-60
2023/06/29 08:08:28;;;;;;;21.23;9.47;;;24.10;91.70;;;;;;5115861;27;20495;-60
2023/06/29 08:10:55;;;;;;;39.97;17.20;;;24.20;91.70;;;;;;5113436;27;20476;-60
2023/06/29 08:13:23;;;;;;;22.93;10.80;;;24.30;91.20;;;;;;5116880;27;20487;-60
2023/06/29 08:15:51;;;;;;;25.07;11.97;;;24.30;91.00;;;;;;5115991;27;20472;-61
2023/06/29 08:18:18;;;;;;;24.07;11.80;;;24.40;91.30;;;;;;5116078;27;20544;-61
2023/06/29 08:20:46;;;;;;;21.70;9.80;;;24.50;91.10;;;;;;5116057;27;20478;-60
2023/06/29 08:23:13;;;;;;;23.70;10.10;;;24.60;90.90;;;;;;5112592;27;21472;-61
2023/06/29 08:25:40;;;;;;;17.47;7.77;;;24.70;90.90;;;;;;5116457;27;20483;-60
2023/06/29 08:28:07;;;;;;;23.57;10.60;;;25.00;91.20;;;;;;5117200;27;20486;-60
2023/06/29 08:30:34;;;;;;;14.80;8.90;;;25.10;91.10;;;;;;5120235;27;20475;-60
2023/06/29 08:33:03;;;;;;;27.27;12.20;;;25.20;90.10;;;;;;5118837;27;20477;-60
2023/06/29 08:35:29;;;;;;;29.20;10.37;;;25.30;90.20;;;;;;5086777;27;20489;-60
2023/06/29 08:37:56;;;;;;;31.87;15.33;;;25.30;87.30;;;;;;5117874;27;20497;-60
2023/06/29 08:40:24;;;;;;;16.80;9.50;;;25.20;83.50;;;;;;5090208;27;20847;-61
2023/06/29 08:42:51;;;;;;;35.40;11.23;;;25.10;84.50;;;;;;5118021;27;20563;-61
2023/06/29 08:45:18;;;;;;;18.43;9.07;;;25.00;84.40;;;;;;5111964;27;21024;-60
2023/06/29 08:47:51;;;;;;;28.50;10.43;;;25.10;88.00;;;;;;5111528;27;20476;-61
2023/06/29 08:50:26;;;;;;;20.93;8.03;;;25.20;87.70;;;;;;5116478;27;20482;-61
2023/06/29 08:52:53;;;;;;;36.07;15.20;;;25.30;88.20;;;;;;5095541;27;20554;-61
2023/06/29 08:55:20;;;;;;;25.33;10.33;;;;;;;;;;5125557;27;20592;-61
2023/06/29 08:57:47;;;;;;;27.43;12.20;;;25.60;86.10;;;;;;5121672;27;20815;-61
2023/06/29 09:00:16;;;;;;;24.03;10.20;;;25.70;87.20;;;;;;5124473;27;20526;-61
2023/06/29 09:02:45;;;;;;;15.50;8.00;;;25.70;82.60;;;;;;5128027;27;20483;-61
2023/06/29 09:05:14;;;;;;;23.33;11.70;;;25.80;86.40;;;;;;5125976;27;21153;-61
2023/06/29 09:07:43;;;;;;;11.70;6.90;;;25.90;85.40;;;;;;5124916;27;20484;-61
2023/06/29 09:10:11;;;;;;;26.30;11.63;;;26.00;83.70;;;;;;5126071;27;20433;-61
2023/06/29 09:12:38;;;;;;;15.80;7.83;;;26.10;84.50;;;;;;5122918;27;20555;-61
2023/06/29 09:15:10;;;;;;;25.67;11.43;;;26.20;83.40;;;;;;5128529;27;20492;-60
2023/06/29 09:17:37;;;;;;;16.67;6.97;;;26.40;84.00;;;;;;5121887;27;20511;-61
2023/06/29 09:20:13;;;;;;;25.77;11.63;;;26.40;82.80;;;;;;5120336;27;20485;-61
2023/06/29 09:22:42;;;;;;;11.60;6.77;;;26.40;84.00;;;;;;5123113;27;20485;-61
2023/06/29 09:25:10;;;;;;;26.87;11.80;;;26.50;82.70;;;;;;5108940;27;20478;-61
2023/06/29 09:27:38;;;;;;;17.93;8.40;;;26.60;82.20;;;;;;5122499;27;20487;-61
2023/06/29 09:30:07;;;;;;;24.47;10.33;;;26.70;81.90;;;;;;5125436;27;20478;-61
2023/06/29 09:32:37;;;;;;;17.90;8.27;;;26.70;81.40;;;;;;5121444;27;20498;-62
2023/06/29 09:35:08;;;;;;;26.17;10.97;;;26.70;78.70;;;;;;5122209;27;20471;-62
2023/06/29 09:37:36;;;;;;;20.40;8.40;;;26.60;78.20;;;;;;5122996;27;20479;-62
2023/06/29 09:40:09;;;;;;;26.73;11.90;;;26.50;79.50;;;;;;5119155;27;20477;-61
2023/06/29 09:42:37;;;;;;;18.23;8.40;;;26.70;79.40;;;;;;5121630;27;20472;-61
2023/06/29 09:45:07;;;;;;;22.70;10.70;;;26.70;77.90;;;;;;5125804;27;20572;-61
2023/06/29 09:47:35;;;;;;;17.63;8.47;;;26.80;79.00;;;;;;5119607;27;20559;-62
2023/06/29 09:50:02;;;;;;;24.63;11.50;;;26.50;77.70;;;;;;5122871;27;20471;-61
2023/06/29 09:52:29;;;;;;;17.23;8.80;;;26.40;76.60;;;;;;5125929;27;20582;-61
2023/06/29 09:54:58;;;;;;;32.73;13.80;;;26.40;77.70;;;;;;5120456;27;20826;-62
2023/06/29 09:57:28;;;;;;;18.70;8.87;;;26.60;77.20;;;;;;5124546;27;20480;-61
2023/06/29 09:59:56;;;;;;;30.30;12.90;;;26.70;77.30;;;;;;5093314;27;20650;-61
2023/06/29 10:02:23;;;;;;;19.03;9.27;;;26.90;79.60;;;;;;5115601;27;20475;-61
2023/06/29 10:04:50;;;;;;;29.90;11.60;;;27.20;80.20;;;;;;5121528;27;20558;-62
2023/06/29 10:07:18;;;;;;;26.23;12.27;;;27.40;77.70;;;;;;5123435;27;21035;-62
2023/06/29 10:09:48;;;;;;;14.90;7.30;;;27.30;75.70;;;;;;5115737;27;20516;-60
2023/06/29 10:12:16;;;;;;;34.77;9.83;;;27.30;78.20;;;;;;5117785;27;20479;-61
2023/06/29 10:14:45;;;;;;;18.53;9.20;;;27.40;77.80;;;;;;5119011;27;20458;-61
2023/06/29 10:17:15;;;;;;;27.17;10.77;;;;;;;;;;5125527;27;20502;-61
2023/06/29 10:19:44;;;;;;;14.83;7.77;;;27.40;76.20;;;;;;5109053;27;21075;-62
2023/06/29 10:22:15;;;;;;;29.03;12.13;;;27.60;78.20;;;;;;5119786;27;20460;-62
2023/06/29 10:24:48;;;;;;;23.43;8.73;;;28.00;77.20;;;;;;5123399;27;20953;-62
2023/06/29 10:27:17;;;;;;;23.70;10.27;;;28.30;79.00;;;;;;5109126;27;20776;-62
2023/06/29 10:29:46;;;;;;;22.97;9.10;;;28.40;76.50;;;;;;5115550;27;20490;-61
2023/06/29 10:32:31;;;;;;;21.70;10.17;;;28.50;75.00;;;;;;5120640;27;20479;-62
2023/06/29 10:35:03;;;;;;;30.10;13.33;;;28.50;74.20;;;;;;5093475;27;20451;-62
2023/06/29 10:37:31;;;;;;;22.87;7.77;;;28.40;74.40;;;;;;5110070;27;21040;-62
2023/06/29 10:39:59;;;;;;;37.47;14.53;;;28.30;71.60;;;;;;5118758;27;20446;-62
2023/06/29 10:42:49;;;;;;;28.27;10.60;;;28.10;73.10;;;;;;5094024;27;20603;-62
2023/06/29 10:45:33;;;;;;;17.90;9.20;;;27.90;73.00;;;;;;5114016;27;20480;-62
2023/06/29 10:48:02;;;;;;;12.87;7.00;;;27.90;73.30;;;;;;5102720;27;20940;-62
2023/06/29 10:50:29;;;;;;;28.53;10.73;;;28.00;73.80;;;;;;5112934;27;20462;-61
2023/06/29 10:52:58;;;;;;;23.50;11.00;;;;;;;;;;5113296;27;20458;-62
2023/06/29 10:55:27;;;;;;;13.80;7.30;;;28.00;72.50;;;;;;5117115;27;20455;-62
2023/06/29 10:57:56;;;;;;;18.73;9.03;;;27.90;70.90;;;;;;5117513;27;20451;-62
2023/06/29 11:00:25;;;;;;;21.70;8.33;;;27.90;72.40;;;;;;5094918;27;21132;-62
2023/06/29 11:02:54;;;;;;;31.17;12.67;;;28.00;71.70;;;;;;5117503;27;20457;-62
2023/06/29 11:05:22;;;;;;;15.50;7.67;;;27.90;72.00;;;;;;5116495;27;21001;-62
2023/06/29 11:07:50;;;;;;;26.93;10.60;;;27.80;72.00;;;;;;5116226;27;20455;-62
2023/06/29 11:10:20;;;;;;;25.73;9.63;;;27.80;71.50;;;;;;5101427;27;20450;-61
2023/06/29 11:12:46;;;;;;;17.87;8.83;;;27.70;71.30;;;;;;5091628;28;20981;-61
2023/06/29 11:15:14;;;;;;;22.07;8.07;;;27.80;71.50;;;;;;5095825;27;20472;-62
2023/06/29 11:17:41;;;;;;;15.67;8.53;;;28.00;71.50;;;;;;5096719;27;20478;-62
2023/06/29 11:20:14;;;;;;;14.30;7.77;;;27.90;70.20;;;;;;5095168;27;20496;-62
2023/06/29 11:22:41;;;;;;;14.70;8.27;;;28.30;74.30;;;;;;5100569;27;20475;-62
2023/06/29 11:25:09;;;;;;;11.20;6.53;;;28.60;72.50;;;;;;5111977;27;20980;-62
2023/06/29 11:27:36;;;;;;;15.63;7.13;;;;;;;;;;5112558;28;20588;-62
2023/06/29 11:30:07;;;;;;;9.40;7.03;;;29.00;71.10;;;;;;5111145;27;21256;-61
2023/06/29 11:32:34;;;;;;;20.43;8.73;;;29.10;72.50;;;;;;5115073;27;20475;-62
2023/06/29 11:35:02;;;;;;;28.73;10.67;;;29.20;69.40;;;;;;5117071;27;20483;-61
2023/06/29 11:37:31;;;;;;;12.87;7.97;;;29.20;70.90;;;;;;5117646;27;20966;-61
2023/06/29 11:39:58;;;;;;;11.20;7.23;;;29.10;69.10;;;;;;5090611;27;20468;-64
2023/06/29 11:42:26;;;;;;;20.83;7.83;;;28.80;68.90;;;;;;5118342;27;20487;-62
2023/06/29 11:45:02;;;;;;;12.07;6.83;;;28.80;71.00;;;;;;5119925;27;20486;-62
2023/06/29 11:47:29;;;;;;;11.87;6.70;;;28.60;69.80;;;;;;5121192;27;20475;-63
2023/06/29 11:49:57;;;;;;;12.67;6.50;;;28.30;68.10;;;;;;5120478;27;20682;-62
2023/06/29 11:52:25;;;;;;;13.23;7.97;;;28.40;69.50;;;;;;5120103;27;20496;-62
2023/06/29 11:54:53;;;;;;;14.00;7.37;;;;;;;;;;5119929;27;20453;-62
2023/06/29 11:57:20;;;;;;;14.67;8.00;;;28.60;69.30;;;;;;5120047;27;20482;-63
2023/06/29 11:59:47;;;;;;;18.23;9.67;;;28.40;69.10;;;;;;5118737;27;20480;-63
2023/06/29 12:02:15;;;;;;;18.87;10.30;;;28.30;68.10;;;;;;5114231;27;20517;-63
2023/06/29 12:04:55;;;;;;;21.57;10.50;;;28.40;69.10;;;;;;5120039;27;20498;-63
2023/06/29 12:07:36;;;;;;;14.70;9.40;;;28.70;69.50;;;;;;5119820;27;20503;-63
2023/06/29 12:10:05;;;;;;;8.43;6.63;;;28.90;70.40;;;;;;5118718;27;20571;-61
2023/06/29 12:12:36;;;;;;;9.80;6.70;;;28.80;69.90;;;;;;5115182;27;20910;-62
2023/06/29 12:15:17;;;;;;;15.27;8.07;;;29.10;68.60;;;;;;5114349;27;20552;-62
2023/06/29 12:17:45;;;;;;;12.53;8.27;;;29.30;68.80;;;;;;5116121;27;21042;-62
2023/06/29 12:20:15;;;;;;;16.17;7.80;;;29.40;68.90;;;;;;5116633;27;20475;-62
2023/06/29 12:22:43;;;;;;;8.57;7.47;;;29.70;70.10;;;;;;5116222;27;20451;-62
2023/06/29 12:25:13;;;;;;;7.80;7.00;;;29.80;70.10;;;;;;5116010;27;20532;-62
2023/06/29 12:27:42;;;;;;;15.90;7.80;;;30.10;66.20;;;;;;5116729;27;20671;-62
2023/06/29 12:30:11;;;;;;;11.73;7.33;;;30.30;69.80;;;;;;5096981;27;20507;-62
2023/06/29 12:32:38;;;;;;;16.33;9.30;;;30.30;65.80;;;;;;5113482;27;20466;-62
2023/06/29 12:35:05;;;;;;;15.10;7.83;;;30.00;66.80;;;;;;5116594;27;20831;-61
2023/06/29 12:37:32;;;;;;;7.67;6.97;;;30.10;68.40;;;;;;5115766;27;20462;-62
2023/06/29 12:39:59;;;;;;;7.90;7.10;;;30.20;68.40;;;;;;5115827;27;20812;-61
2023/06/29 12:42:27;;;;;;;12.80;7.90;;;30.50;68.70;;;;;;5112536;27;20843;-62
2023/06/29 12:44:54;;;;;;;8.07;7.20;;;30.40;65.70;;;;;;5114111;27;20486;-62
2023/06/29 12:47:21;;;;;;;11.30;7.70;;;30.40;67.60;;;;;;5120647;27;20454;-62
2023/06/29 12:49:49;;;;;;;24.87;10.63;;;30.10;64.10;;;;;;5118247;27;20466;-63
2023/06/29 12:52:16;;;;;;;8.50;7.00;;;30.00;65.00;;;;;;5115202;27;20554;-63